Latest Weather Observations for Flinders Reef

IDQ60801

Issued at 11:02 pm EST Tuesday 17 January 2017 (issued every 30 minutes, with the page automatically refreshed every 10 minutes)

About weather observations | Map of weather stations | Latest weather observations for QLD | Other Formats
Station Details ID: 200783 Name: FLINDERS REEF Lat: -17.72 Lon: 148.45 Height: 2.6 m
Data from the previous 72 hours. | See also: Recent months at Flinders Reef
Date/Time
EST
Temp
°C
App
Temp
°C
Dew
Point
°C
Rel
Hum
%
Delta-T
°C
Wind Press
QNH
hPa
Press
MSL
hPa
Rain since
9am
mm
Dir  Spd
km/h
Gust
km/h
Spd
kts
Gust
kts
17/11:00pm 28.6 - - - - ESE 24 28 13 15 1012.9 - -
17/10:30pm 28.5 - - - - ESE 20 26 11 14 1013.1 - -
17/10:24pm 28.4 - - - - ESE 20 - 11 - - 1013.1 -
17/10:00pm 28.3 - - - - ESE 20 26 11 14 1013.1 - -
17/09:30pm 28.4 - - - - ESE 24 30 13 16 1012.6 - -
17/09:24pm 28.3 - - - - ESE 24 - 13 - - 1012.5 -
17/09:00pm 28.1 - - - - ESE 26 30 14 16 1012.3 - -
17/08:30pm 28.2 - - - - ESE 24 30 13 16 1012.1 - -
17/08:24pm 28.2 - - - - ESE 24 - 13 - - 1012.0 -
17/08:00pm 28.0 - - - - ESE 24 28 13 15 1011.9 - -
17/07:30pm 27.8 - - - - ESE 24 28 13 15 1011.7 - -
17/07:24pm 27.7 - - - - SE 24 - 13 - - 1011.6 -
17/07:00pm 27.6 - - - - SE 26 32 14 17 1011.6 - -
17/06:30pm 28.2 - - - - SE 22 26 12 14 1011.5 - -
17/06:24pm 28.2 - - - - SE 22 - 12 - - 1011.5 -
17/06:00pm 28.1 - - - - ESE 20 24 11 13 1011.4 - -
17/05:30pm 27.7 - - - - ESE 22 26 12 14 1011.0 - -
17/05:24pm 27.7 - - - - ESE 24 - 13 - - 1010.9 -
17/05:00pm 27.6 - - - - ESE 30 33 16 18 1010.8 - -
17/04:30pm 27.4 - - - - ESE 32 35 17 19 1010.9 - -
17/04:24pm 27.2 - - - - ESE 30 - 16 - - 1010.9 -
17/04:00pm 27.0 - - - - ESE 32 37 17 20 1011.1 - -
17/03:30pm 29.5 - - - - E 17 20 9 11 1011.4 - -
17/03:24pm 29.3 - - - - E 17 - 9 - - 1011.3 -
17/03:00pm 28.5 - - - - E 17 19 9 10 1011.6 - -
17/02:30pm 28.6 - - - - ESE 19 22 10 12 1011.8 - -
17/02:24pm 28.6 - - - - ESE 17 - 9 - - 1011.8 -
17/02:00pm 28.8 - - - - ESE 13 17 7 9 1011.9 - -
17/01:30pm 28.5 - - - - ESE 17 19 9 10 1012.2 - -
17/01:24pm 28.6 - - - - ESE 17 - 9 - - 1012.1 -
17/01:00pm 28.4 - - - - SE 17 20 9 11 1012.3 - -
17/12:30pm 28.7 - - - - ESE 13 20 7 11 1012.7 - -
17/12:24pm 28.8 - - - - E 11 - 6 - - 1012.7 -
17/12:00pm 29.0 - - - - E 13 15 7 8 1013.1 - -
17/11:30am 28.5 - - - - NNE 11 17 6 9 1013.2 - -
17/11:24am 28.6 - - - - ENE 13 - 7 - - 1013.1 -
17/11:00am 30.7 - - - - NNE 6 7 3 4 1013.3 - -
17/10:30am 28.8 - - - - N 9 11 5 6 1013.6 - -
17/10:24am 28.7 - - - - N 9 - 5 - - 1013.5 -
17/10:00am 29.0 - - - - N 9 13 5 7 1013.7 - -
17/09:30am 28.8 - - - - NNE 7 11 4 6 1013.4 - -
17/09:24am 28.8 - - - - NNE 9 - 5 - - 1013.3 -
17/09:00am 29.6 - - - - E 15 17 8 9 1013.4 - -
17/08:30am 29.2 - - - - E 15 17 8 9 1013.0 - -
17/08:24am 29.1 - - - - E 15 - 8 - - 1012.9 -
17/08:00am 29.0 - - - - E 15 17 8 9 1013.0 - -
17/07:30am 28.7 - - - - E 17 20 9 11 1012.9 - -
17/07:24am 28.6 - - - - E 17 - 9 - - 1012.7 -
17/07:00am 28.7 - - - - ESE 15 17 8 9 1012.5 - -
17/06:30am 28.2 - - - - ESE 15 19 8 10 1012.1 - -
17/06:24am 28.1 - - - - ESE 15 - 8 - - 1012.0 -
17/06:00am 28.0 - - - - E 15 19 8 10 1011.5 - -
17/05:30am 27.9 - - - - E 13 17 7 9 1011.3 - -
17/05:24am 27.9 - - - - E 13 - 7 - - 1011.1 -
17/05:00am 28.0 - - - - ENE 13 15 7 8 1011.0 - -
17/04:30am 27.9 - - - - ENE 13 15 7 8 1010.7 - -
17/04:24am 28.0 - - - - ENE 13 - 7 - - 1010.6 -
17/04:00am 27.9 - - - - ENE 11 13 6 7 1010.4 - -
17/03:30am 28.0 - - - - ENE 11 13 6 7 1010.5 - -
17/03:24am 28.1 - - - - ENE 13 - 7 - - 1010.4 -
17/03:00am 28.0 - - - - ENE 15 17 8 9 1010.6 - -
17/02:30am 28.1 - - - - ENE 17 20 9 11 1010.7 - -
17/02:24am 28.0 - - - - ENE 17 - 9 - - 1010.6 -
17/02:00am 27.9 - - - - ENE 17 20 9 11 1010.7 - -
17/01:30am 28.1 - - - - ENE 19 22 10 12 1010.7 - -
17/01:24am 28.0 - - - - ENE 17 - 9 - - 1010.7 -
17/01:00am 28.0 - - - - ENE 19 20 10 11 1011.0 - -
17/12:30am 28.1 - - - - ENE 15 17 8 9 1011.3 - -
17/12:24am 28.1 - - - - ENE 17 - 9 - - 1011.3 -
17/12:00am 28.2 - - - - ENE 17 20 9 11 1011.7 - -
 
Date/Time
EST
Temp
°C
App
Temp
°C
Dew
Point
°C
Rel
Hum
%
Delta-T
°C
Wind Press
QNH
hPa
Press
MSL
hPa
Rain since
9am
mm
Dir  Spd
km/h
Gust
km/h
Spd
kts
Gust
kts
16/11:30pm 28.2 - - - - ENE 19 20 10 11 1011.7 - -
16/11:24pm 28.2 - - - - ENE 19 - 10 - - 1011.7 -
16/11:00pm 28.1 - - - - ENE 19 20 10 11 1012.0 - -
16/10:30pm 28.2 - - - - E 19 22 10 12 1012.2 - -
16/10:24pm 28.1 - - - - E 20 - 11 - - 1012.1 -
16/10:00pm 28.0 - - - - E 2 6 1 3 1012.1 - -
16/09:30pm 27.7 - - - - CALM 0 6 0 3 1011.8 - -
16/09:24pm 27.8 - - - - CALM 0 - 0 - - 1011.6 -
16/09:00pm 28.0 - - - - ENE 2 4 1 2 1011.5 - -
16/08:30pm 27.9 - - - - NE 17 19 9 10 1011.0 - -
16/08:24pm 28.1 - - - - NE 15 - 8 - - 1010.9 -
16/08:00pm 28.0 - - - - NNE 17 19 9 10 1011.0 - -
16/07:30pm 27.7 - - - - NNE 15 19 8 10 1011.0 - -
16/07:24pm 27.8 - - - - NNE 17 - 9 - - 1010.8 -
16/07:00pm 27.6 - - - - NNE 19 22 10 12 1010.4 - -
16/06:30pm 27.8 - - - - NE 20 24 11 13 1010.3 - -
16/06:24pm 27.6 - - - - NE 20 - 11 - - 1010.1 -
16/06:00pm 27.3 - - - - NE 13 17 7 9 1009.4 - -
16/05:30pm 27.3 - - - - ENE 33 37 18 20 1009.3 - -
16/05:24pm 27.4 - - - - ENE 32 - 17 - - 1009.1 -
16/05:11pm 27.7 - - - - ENE 37 39 20 21 1009.1 - -
16/05:00pm 28.3 - - - - E 24 28 13 15 1008.8 - -
16/04:30pm 28.2 - - - - E 24 26 13 14 1008.8 - -
16/04:24pm 28.3 - - - - E 24 - 13 - - 1008.7 -
16/04:00pm 28.1 - - - - E 20 24 11 13 1008.7 - -
16/03:30pm 28.1 - - - - E 19 22 10 12 1008.9 - -
16/03:24pm 28.1 - - - - E 19 - 10 - - 1008.9 -
16/03:00pm 27.9 - - - - E 19 20 10 11 1009.2 - -
16/02:30pm 27.6 - - - - E 24 26 13 14 1009.2 - -
16/02:24pm 27.7 - - - - E 24 - 13 - - 1009.1 -
16/02:00pm 27.1 - - - - E 22 26 12 14 1009.3 - -
16/01:30pm 27.5 - - - - ENE 26 32 14 17 1009.3 - -
16/01:24pm 27.7 - - - - NE 22 - 12 - - 1009.2 -
16/01:00pm 27.6 - - - - NE 26 35 14 19 1009.4 - -
16/12:54pm 27.6 - - - - ENE 28 41 15 22 1009.5 - -
16/12:30pm 29.7 - - - - E 15 19 8 10 1009.6 - -
16/12:24pm 29.7 - - - - E 17 - 9 - - 1009.4 -
16/12:00pm 30.2 - - - - CALM 0 0 0 0 1009.7 - -
16/11:30am 30.8 - - - - CALM 0 0 0 0 1009.9 - -
16/11:24am 30.6 - - - - CALM 0 - 0 - - 1009.8 -
16/11:00am 30.3 - - - - CALM 0 4 0 2 1010.2 - -
16/10:30am 29.5 - - - - N 4 9 2 5 1010.4 - -
16/10:24am 29.3 - - - - N 7 - 4 - - 1010.3 -
16/10:00am 28.6 - - - - N 11 13 6 7 1010.5 - -
16/09:30am 28.7 - - - - NNW 9 13 5 7 1010.6 - -
16/09:24am 28.5 - - - - NNW 9 - 5 - - 1010.4 -
16/09:00am 27.5 - - - - NNW 11 13 6 7 1010.4 - -
16/08:30am 26.9 - - - - NNW 17 24 9 13 1010.4 - -
16/08:24am 26.8 - - - - NNW 22 - 12 - - 1010.3 -
16/08:00am 26.5 - - - - N 33 39 18 21 1010.2 - -
16/07:40am 26.9 - - - - N 43 48 23 26 1009.8 - -
16/07:30am 29.2 - - - - NNE 19 20 10 11 1009.6 - -
16/07:24am 29.1 - - - - NNE 17 - 9 - - 1009.5 -
16/07:00am 28.9 - - - - NNE 19 20 10 11 1009.2 - -
16/06:30am 28.9 - - - - N 15 15 8 8 1009.1 - -
16/06:24am 28.7 - - - - N 13 - 7 - - 1008.9 -
16/06:00am 28.6 - - - - N 13 15 7 8 1008.7 - -
16/05:30am 28.5 - - - - N 15 17 8 9 1008.5 - -
16/05:24am 28.6 - - - - N 15 - 8 - - 1008.1 -
16/05:00am 28.6 - - - - N 19 20 10 11 1008.1 - -
16/04:30am 28.6 - - - - N 17 20 9 11 1007.8 - -
16/04:24am 28.6 - - - - N 15 - 8 - - 1007.6 -
16/04:00am 28.6 - - - - NNE 15 17 8 9 1007.6 - -
16/03:30am 28.6 - - - - NNE 20 22 11 12 1007.4 - -
16/03:24am 28.6 - - - - N 20 - 11 - - 1007.3 -
16/03:00am 28.4 - - - - N 20 22 11 12 1007.3 - -
16/02:30am 28.6 - - - - N 20 22 11 12 1007.6 - -
16/02:24am 28.4 - - - - N 19 - 10 - - 1007.6 -
16/02:00am 28.6 - - - - NNE 19 20 10 11 1007.8 - -
16/01:30am 28.5 - - - - NNE 20 24 11 13 1008.1 - -
16/01:24am 28.5 - - - - NNE 20 - 11 - - 1008.1 -
16/01:00am 28.6 - - - - NNE 20 24 11 13 1008.4 - -
16/12:30am 28.6 - - - - NNE 22 26 12 14 1008.7 - -
16/12:24am 28.6 - - - - NNE 24 - 13 - - 1008.6 -
16/12:00am 28.6 - - - - NNE 22 26 12 14 1008.7 - -
 
Date/Time
EST
Temp
°C
App
Temp
°C
Dew
Point
°C
Rel
Hum
%
Delta-T
°C
Wind Press
QNH
hPa
Press
MSL
hPa
Rain since
9am
mm
Dir  Spd
km/h
Gust
km/h
Spd
kts
Gust
kts
15/11:30pm 28.5 - - - - NNE 22 24 12 13 1009.0 - -
15/11:24pm 28.6 - - - - NNE 22 - 12 - - 1008.9 -
15/11:00pm 28.6 - - - - N 19 24 10 13 1009.4 - -
15/10:30pm 28.5 - - - - N 19 20 10 11 1009.6 - -
15/10:24pm 28.4 - - - - N 19 - 10 - - 1009.4 -
15/10:00pm 28.3 - - - - N 20 24 11 13 1009.5 - -
15/09:30pm 28.3 - - - - N 20 26 11 14 1009.4 - -
15/09:24pm 27.8 - - - - N 20 - 11 - - 1009.1 -
15/09:00pm 28.6 - - - - NNE 13 15 7 8 1009.2 - -
15/08:30pm 28.6 - - - - NNE 15 17 8 9 1008.8 - -
15/08:24pm 28.6 - - - - NNE 15 - 8 - - 1008.8 -
15/08:00pm 28.6 - - - - NNE 17 20 9 11 1008.6 - -
15/07:30pm 28.6 - - - - NE 19 20 10 11 1008.1 - -
15/07:24pm 28.6 - - - - NE 17 - 9 - - 1007.9 -
15/07:00pm 28.5 - - - - NE 19 20 10 11 1007.8 - -
15/06:30pm 28.6 - - - - N 15 19 8 10 1007.6 - -
15/06:24pm 28.6 - - - - N 17 - 9 - - 1007.6 -
15/06:00pm 28.7 - - - - N 15 17 8 9 1007.4 - -
15/05:30pm 28.6 - - - - N 11 13 6 7 1007.2 - -
15/05:24pm 28.6 - - - - N 11 - 6 - - 1007.1 -
15/05:00pm 28.7 - - - - N 11 13 6 7 1007.1 - -
15/04:30pm 29.2 - - - - N 7 9 4 5 1007.4 - -
15/04:24pm 29.5 - - - - N 7 - 4 - - 1007.3 -
15/04:00pm 29.9 - - - - N 7 9 4 5 1007.6 - -
15/03:30pm 29.6 - - - - N 7 11 4 6 1007.7 - -
15/03:24pm 28.9 - - - - N 7 - 4 - - 1007.6 -
15/03:00pm 29.2 - - - - N 7 11 4 6 1007.8 - -
15/02:30pm 28.6 - - - - N 9 11 5 6 1008.1 - -
15/02:24pm 29.0 - - - - N 9 - 5 - - 1008.0 -
15/02:00pm 29.4 - - - - N 9 11 5 6 1008.3 - -
15/01:30pm 28.5 - - - - N 11 13 6 7 1008.3 - -
15/01:24pm 28.5 - - - - N 11 - 6 - - 1008.3 -
15/01:00pm 28.5 - - - - N 9 11 5 6 1008.6 - -
15/12:30pm 28.3 - - - - N 11 13 6 7 1009.0 - -
15/12:24pm 28.3 - - - - N 11 - 6 - - 1008.8 -
15/12:00pm 29.5 - - - - CALM 0 0 0 0 1009.2 - -
15/11:30am 28.1 - - - - N 7 9 4 5 1009.1 - -
15/11:24am 28.4 - - - - N 7 - 4 - - 1009.0 -
15/11:00am 28.1 - - - - CALM 0 4 0 2 1009.3 - -
15/10:30am 28.5 - - - - CALM 0 0 0 0 1009.4 - -
15/10:24am 28.4 - - - - CALM 0 - 0 - - 1009.5 -
15/10:00am 27.2 - - - - CALM 0 6 0 3 1010.0 - -
15/09:30am 26.6 - - - - CALM 0 0 0 0 1009.9 - -
15/09:24am 26.7 - - - - CALM 0 - 0 - - 1009.8 -
15/09:00am 26.4 - - - - N 7 11 4 6 1010.1 - -
15/08:30am 26.6 - - - - N 9 11 5 6 1010.1 - -
15/08:24am 26.5 - - - - N 7 - 4 - - 1010.1 -
15/08:00am 26.7 - - - - N 15 19 8 10 1010.0 - -
15/07:30am 26.6 - - - - NNE 13 17 7 9 1010.1 - -
15/07:24am 26.5 - - - - NNE 15 - 8 - - 1010.0 -
15/07:00am 26.5 - - - - N 15 19 8 10 1009.5 - -
15/06:30am 26.6 - - - - NNW 11 17 6 9 1009.1 - -
15/06:24am 26.6 - - - - NNW 17 - 9 - - 1008.9 -
15/06:00am 26.1 - - - - N 30 39 16 21 1009.3 - -
15/05:47am 26.1 - - - - N 28 39 15 21 1009.4 - -
15/05:30am 28.0 - - - - NW 7 9 4 5 1008.9 - -
15/05:24am 28.1 - - - - NW 6 - 3 - - 1008.5 -
15/05:00am 28.0 - - - - CALM 0 0 0 0 1008.4 - -
15/04:30am 28.0 - - - - CALM 0 0 0 0 1007.9 - -
15/04:24am 28.1 - - - - CALM 0 - 0 - - 1007.7 -
15/04:00am 28.1 - - - - NNW 2 6 1 3 1007.5 - -
15/03:30am 28.3 - - - - CALM 0 0 0 0 1007.5 - -
15/03:24am 28.3 - - - - CALM 0 - 0 - - 1007.4 -
15/03:00am 28.4 - - - - CALM 0 0 0 0 1007.6 - -
15/02:30am 28.4 - - - - CALM 0 0 0 0 1007.4 - -
15/02:24am 28.4 - - - - CALM 0 - 0 - - 1007.5 -
15/02:00am 28.5 - - - - NNW 7 9 4 5 1007.9 - -
15/01:30am 28.6 - - - - NNW 7 9 4 5 1008.2 - -
15/01:24am 28.6 - - - - NNW 9 - 5 - - 1008.1 -
15/01:00am 28.6 - - - - NNW 11 13 6 7 1008.5 - -
15/12:30am 28.8 - - - - NNW 13 15 7 8 1009.1 - -
15/12:24am 28.8 - - - - N 13 - 7 - - 1009.0 -
15/12:00am 28.8 - - - - N 11 13 6 7 1009.5 - -
 
Date/Time
EST
Temp
°C
App
Temp
°C
Dew
Point
°C
Rel
Hum
%
Delta-T
°C
Wind Press
QNH
hPa
Press
MSL
hPa
Rain since
9am
mm
Dir  Spd
km/h
Gust
km/h
Spd
kts
Gust
kts
14/11:30pm 28.9 - - - - N 11 11 6 6 1010.1 - -
14/11:24pm 28.8 - - - - N 9 - 5 - - 1010.0 -

Other Formats:

Comma delimited format used in spreadsheet applications
http://www.bom.gov.au/fwo/IDQ60801/IDQ60801.94290.axf

JavaScript Object Notation format (JSON) in row-major order
http://www.bom.gov.au/fwo/IDQ60801/IDQ60801.94290.json